Terminal Aerodrome Forecast
Issued by NWS Mt. Holly, NJ

Current Version | Previous Version | Text Only | Print | Product List | Glossary On
Versions: 1 2 3 4 5 6 7 8 9 10 11 12 13 14 15 16 17 18 19 20 21 22 23 24 25
000
FTUS41 KPHI 171400 AAA
TAFILG
TAF AMD
KILG 171400Z 1714/1812 14004KT 4SM BR OVC010
     FM171600 14005KT 5SM -RA BR OVC009
     FM172200 16005KT 2SM -DZ BR OVC004
      TEMPO 1804/1808 3/4SM BR OVC002
     FM180900 30005KT 3SM BR OVC005=

USA.gov is the U.S. government's official web portal to all federal, state and local government web resources and services.